createdAt,value
2023-12-30T00:01:22.512Z,95331.69
2023-12-30T00:03:49.808Z,95335.25
2023-12-30T00:06:17.045Z,95332.34
2023-12-30T00:08:44.340Z,95332.09
2023-12-30T00:11:11.780Z,95343.81
2023-12-30T00:13:39.334Z,95340.59
2023-12-30T00:16:06.531Z,95326.63
2023-12-30T00:18:33.856Z,95333.94
2023-12-30T00:21:01.099Z,95326.28
2023-12-30T00:23:32.072Z,95336.41
2023-12-30T00:26:05.066Z,95338.81
2023-12-30T00:28:32.179Z,95320.97
2023-12-30T00:30:59.552Z,95336.59
2023-12-30T00:33:28.800Z,95342.03
2023-12-30T00:35:56.781Z,95350.00
2023-12-30T00:38:24.719Z,95348.19
2023-12-30T00:40:52.276Z,95339.84
2023-12-30T00:43:19.327Z,95339.75
2023-12-30T00:45:47.364Z,95343.47
2023-12-30T00:48:15.325Z,95347.94
2023-12-30T00:50:42.362Z,95349.19
2023-12-30T00:53:09.490Z,95347.28
2023-12-30T00:55:36.560Z,95353.09
2023-12-30T00:58:03.907Z,95346.28
2023-12-30T01:00:32.082Z,95345.94
2023-12-30T01:02:59.396Z,95347.00
2023-12-30T01:05:26.774Z,95358.09
2023-12-30T01:07:53.965Z,95349.28
2023-12-30T01:10:21.163Z,95356.00
2023-12-30T01:12:48.355Z,95347.66
2023-12-30T01:15:15.562Z,95345.47
2023-12-30T01:17:43.163Z,95351.84
2023-12-30T01:20:12.050Z,95345.13
2023-12-30T01:22:39.472Z,95347.59
2023-12-30T01:25:07.245Z,95343.75
2023-12-30T01:27:34.569Z,95333.16
2023-12-30T01:30:01.730Z,95339.41
2023-12-30T01:32:30.672Z,95338.41
2023-12-30T01:34:57.794Z,95343.50
2023-12-30T01:37:24.887Z,95319.06
2023-12-30T01:39:52.028Z,95337.06
2023-12-30T01:42:19.393Z,95326.06
2023-12-30T01:44:46.498Z,95328.88
2023-12-30T01:47:14.640Z,95337.13
2023-12-30T01:49:42.172Z,95350.22
2023-12-30T01:52:09.830Z,95330.97
2023-12-30T01:54:36.976Z,95319.53
2023-12-30T01:57:04.895Z,95338.47
2023-12-30T01:59:33.093Z,95326.25
2023-12-30T02:02:00.846Z,95319.00
2023-12-30T02:04:28.166Z,95325.78
2023-12-30T02:06:55.375Z,95311.38
2023-12-30T02:09:22.899Z,95313.38
2023-12-30T02:11:50.167Z,95312.81
2023-12-30T02:14:24.894Z,95311.09
2023-12-30T02:16:52.111Z,95303.03
2023-12-30T02:19:39.955Z,95318.66
2023-12-30T02:22:07.076Z,95315.56
2023-12-30T02:24:34.221Z,95315.72
2023-12-30T02:27:01.409Z,95322.59
2023-12-30T02:29:28.477Z,95303.84
2023-12-30T02:31:55.626Z,95313.38
2023-12-30T02:34:22.854Z,95320.53
2023-12-30T02:36:50.166Z,95315.25
2023-12-30T02:39:17.253Z,95318.28
2023-12-30T02:41:44.286Z,95330.50
2023-12-30T02:44:11.702Z,95326.25
2023-12-30T02:46:38.993Z,95321.63
2023-12-30T02:49:06.583Z,95313.09
2023-12-30T02:51:33.852Z,95324.06
2023-12-30T02:54:00.911Z,95311.75
2023-12-30T02:56:28.594Z,95283.34
2023-12-30T02:59:03.165Z,95317.63
2023-12-30T03:01:32.334Z,95320.97
2023-12-30T03:04:01.379Z,95320.91
2023-12-30T03:06:28.780Z,95315.34
2023-12-30T03:08:56.000Z,95313.34
2023-12-30T03:11:24.209Z,95309.81
2023-12-30T03:13:51.242Z,95314.19
2023-12-30T03:16:19.663Z,95314.81
2023-12-30T03:18:47.580Z,95291.22
2023-12-30T03:21:17.939Z,95214.41
2023-12-30T03:23:45.034Z,95309.75
2023-12-30T03:26:12.110Z,95294.03
2023-12-30T03:28:39.268Z,95321.78
2023-12-30T03:31:08.544Z,95301.03
2023-12-30T03:33:36.210Z,95314.63
2023-12-30T03:36:03.325Z,95319.25
2023-12-30T03:38:30.552Z,95319.44
2023-12-30T03:40:58.347Z,95323.53
2023-12-30T03:43:25.647Z,95323.59
2023-12-30T03:45:52.779Z,95327.38
2023-12-30T03:48:19.997Z,95333.28
2023-12-30T03:50:47.209Z,95337.53
2023-12-30T03:53:14.456Z,95329.19
2023-12-30T03:55:41.684Z,95328.94
2023-12-30T03:58:08.946Z,95332.19
2023-12-30T04:00:36.106Z,95328.19
2023-12-30T04:03:04.390Z,95329.66
2023-12-30T04:05:31.725Z,95332.94
2023-12-30T04:07:58.803Z,95324.13
2023-12-30T04:10:25.903Z,95336.38
2023-12-30T04:12:53.120Z,95332.94
2023-12-30T04:15:21.263Z,95342.16
2023-12-30T04:17:49.057Z,95333.28
2023-12-30T04:20:16.324Z,95328.03
2023-12-30T04:22:43.641Z,95341.94
2023-12-30T04:25:10.830Z,95344.00
2023-12-30T04:27:38.007Z,95330.19
2023-12-30T04:30:05.514Z,95332.09
2023-12-30T04:32:32.747Z,95346.78
2023-12-30T04:34:59.967Z,95345.50
2023-12-30T04:37:27.070Z,95333.81
2023-12-30T04:39:54.341Z,95332.09
2023-12-30T04:42:21.562Z,95336.34
2023-12-30T04:44:48.986Z,95347.03
2023-12-30T04:47:16.187Z,95339.94
2023-12-30T04:49:43.425Z,95342.84
2023-12-30T04:52:10.605Z,95338.13
2023-12-30T04:54:38.874Z,95359.63
2023-12-30T04:57:05.912Z,95353.13
2023-12-30T04:59:33.279Z,95356.50
2023-12-30T05:02:00.666Z,95356.41
2023-12-30T05:04:28.022Z,95370.28
2023-12-30T05:06:55.312Z,95360.47
2023-12-30T05:09:22.359Z,95359.47
2023-12-30T05:11:50.462Z,95361.28
2023-12-30T05:14:19.819Z,95370.28
2023-12-30T05:16:46.961Z,95372.75
2023-12-30T05:19:14.862Z,95371.94
2023-12-30T05:21:43.082Z,95372.28
2023-12-30T05:24:10.296Z,95362.94
2023-12-30T05:26:37.422Z,95370.47
2023-12-30T05:29:04.414Z,95354.88
2023-12-30T05:31:31.520Z,95376.66
2023-12-30T05:33:58.717Z,95375.03
2023-12-30T05:36:26.052Z,95360.69
2023-12-30T05:38:53.131Z,95370.00
2023-12-30T05:41:20.350Z,95375.78
2023-12-30T05:43:47.386Z,95375.16
2023-12-30T05:46:17.897Z,95382.06
2023-12-30T05:48:45.463Z,95363.19
2023-12-30T05:51:13.197Z,95380.91
2023-12-30T05:53:43.670Z,95392.31
2023-12-30T05:56:10.843Z,95386.94
2023-12-30T05:58:39.142Z,95393.19
2023-12-30T06:01:06.509Z,95391.91
2023-12-30T06:03:36.647Z,95395.19
2023-12-30T06:06:04.863Z,95380.34
2023-12-30T06:08:34.052Z,95392.41
2023-12-30T06:11:01.175Z,95385.03
2023-12-30T06:13:28.274Z,95383.56
2023-12-30T06:15:58.071Z,95396.16
2023-12-30T06:18:31.940Z,95402.00
2023-12-30T06:21:04.691Z,95398.91
2023-12-30T06:23:33.311Z,95394.38
2023-12-30T06:26:04.415Z,95403.97
2023-12-30T06:28:31.567Z,95387.03
2023-12-30T06:30:58.787Z,95384.84
2023-12-30T06:33:26.123Z,95396.69
2023-12-30T06:35:53.379Z,95380.44
2023-12-30T06:38:20.512Z,95410.66
2023-12-30T06:40:47.801Z,95420.31
2023-12-30T06:43:15.524Z,95419.44
2023-12-30T06:45:42.768Z,95401.88
2023-12-30T06:48:10.446Z,95429.84
2023-12-30T06:50:38.032Z,95431.00
2023-12-30T06:53:05.333Z,95417.59
2023-12-30T06:55:38.592Z,95426.72
2023-12-30T06:58:09.912Z,95423.09
2023-12-30T07:00:37.534Z,95429.44
2023-12-30T07:03:05.595Z,95422.84
2023-12-30T07:05:37.839Z,95431.78
2023-12-30T07:08:06.000Z,95431.38
2023-12-30T07:10:33.525Z,95438.44
2023-12-30T07:13:00.948Z,95436.28
2023-12-30T07:15:28.227Z,95435.59
2023-12-30T07:17:55.914Z,95447.53
2023-12-30T07:20:23.386Z,95442.88
2023-12-30T07:22:50.532Z,95445.59
2023-12-30T07:25:17.740Z,95447.78
2023-12-30T07:27:45.312Z,95448.09
2023-12-30T07:30:12.746Z,95442.47
2023-12-30T07:32:40.279Z,95446.88
2023-12-30T07:35:08.349Z,95461.31
2023-12-30T07:37:36.338Z,95449.75
2023-12-30T07:40:04.250Z,95460.72
2023-12-30T07:42:31.510Z,95435.41
2023-12-30T07:44:58.938Z,95448.50
2023-12-30T07:47:29.582Z,95456.09
2023-12-30T07:49:56.835Z,95448.38
2023-12-30T07:52:24.272Z,95463.38
2023-12-30T07:54:51.552Z,95453.28
2023-12-30T07:57:18.747Z,95455.44
2023-12-30T07:59:46.095Z,95459.06
2023-12-30T08:02:13.534Z,95459.22
2023-12-30T08:04:43.048Z,95455.88
2023-12-30T08:07:10.857Z,95465.06
2023-12-30T08:09:38.815Z,95462.16
2023-12-30T08:12:06.845Z,95464.47
2023-12-30T08:14:36.136Z,95475.22
2023-12-30T08:17:04.286Z,95473.19
2023-12-30T08:19:32.758Z,95475.72
2023-12-30T08:22:00.851Z,95485.69
2023-12-30T08:24:30.401Z,95472.75
2023-12-30T08:26:59.513Z,95491.06
2023-12-30T08:29:26.556Z,95481.03
2023-12-30T08:31:54.451Z,95487.00
2023-12-30T08:34:22.593Z,95489.59
2023-12-30T08:36:50.117Z,95474.06
2023-12-30T08:39:17.215Z,95495.91
2023-12-30T08:41:44.591Z,95483.19
2023-12-30T08:44:11.803Z,95483.41
2023-12-30T08:46:38.973Z,95481.00
2023-12-30T08:49:08.683Z,95485.09
2023-12-30T08:51:39.286Z,95475.81
2023-12-30T08:54:06.433Z,95454.84
2023-12-30T08:56:38.287Z,95470.69
2023-12-30T08:59:05.523Z,95464.03
2023-12-30T09:01:32.698Z,95458.56
2023-12-30T09:04:07.307Z,95442.09
2023-12-30T09:06:34.553Z,95454.31
2023-12-30T09:09:01.561Z,95454.00
2023-12-30T09:11:28.864Z,95452.00
2023-12-30T09:13:56.003Z,95445.44
2023-12-30T09:16:23.072Z,95440.41
2023-12-30T09:18:50.245Z,95445.44
2023-12-30T09:21:17.539Z,95441.78
2023-12-30T09:23:44.682Z,95445.28
2023-12-30T09:26:13.977Z,95437.97
2023-12-30T09:28:41.284Z,95435.91
2023-12-30T09:31:08.801Z,95441.03
2023-12-30T09:33:36.107Z,95433.53
2023-12-30T09:36:03.680Z,95427.03
2023-12-30T09:38:30.682Z,95427.44
2023-12-30T09:40:57.872Z,95412.41
2023-12-30T09:43:27.426Z,95422.19
2023-12-30T09:45:57.684Z,95416.47
2023-12-30T09:48:27.602Z,95415.66
2023-12-30T09:50:55.687Z,95420.94
2023-12-30T09:53:23.637Z,95416.28
2023-12-30T09:55:54.629Z,95406.09
2023-12-30T09:58:23.840Z,95407.53
2023-12-30T10:00:51.454Z,95419.53
2023-12-30T10:03:20.384Z,95404.44
2023-12-30T10:05:48.605Z,95408.13
2023-12-30T10:08:16.733Z,95407.72
2023-12-30T10:10:47.433Z,95399.38
2023-12-30T10:13:19.316Z,95399.38
2023-12-30T10:15:46.975Z,95394.88
2023-12-30T10:18:15.534Z,95385.72
2023-12-30T10:20:45.731Z,95388.97
2023-12-30T10:23:12.945Z,95378.56
2023-12-30T10:25:41.017Z,95385.50
2023-12-30T10:28:09.295Z,95366.31
2023-12-30T10:30:36.922Z,95372.81
2023-12-30T10:33:12.852Z,95371.72
2023-12-30T10:35:41.706Z,95365.41
2023-12-30T10:38:13.764Z,95368.28
2023-12-30T10:40:42.195Z,95374.53
2023-12-30T10:43:10.012Z,95372.84
2023-12-30T10:45:38.603Z,95361.97
2023-12-30T10:48:08.207Z,95364.13
2023-12-30T10:50:40.416Z,95354.69
2023-12-30T10:53:12.316Z,95356.41
2023-12-30T10:55:49.897Z,95354.28
2023-12-30T10:58:23.773Z,95347.84
2023-12-30T11:01:00.367Z,95340.38
2023-12-30T11:03:29.158Z,95339.19
2023-12-30T11:06:16.388Z,95337.44
2023-12-30T11:08:45.314Z,95338.34
2023-12-30T11:11:15.696Z,95337.91
2023-12-30T11:13:43.635Z,95333.72
2023-12-30T11:16:15.804Z,95326.78
2023-12-30T11:18:52.268Z,95326.09
2023-12-30T11:21:35.240Z,95322.84
2023-12-30T11:24:04.656Z,95320.50
2023-12-30T11:26:32.783Z,95313.91
2023-12-30T11:29:02.327Z,95314.66
2023-12-30T11:31:33.041Z,95318.41
2023-12-30T11:34:01.232Z,95312.41
2023-12-30T11:36:29.828Z,95302.72
2023-12-30T11:38:58.814Z,95303.56
2023-12-30T11:41:27.560Z,95297.84
2023-12-30T11:44:03.521Z,95284.03
2023-12-30T11:46:31.189Z,95295.56
2023-12-30T11:48:58.543Z,95274.59
2023-12-30T11:51:27.945Z,95294.78
2023-12-30T11:53:55.740Z,95296.34
2023-12-30T11:56:23.903Z,95281.53
2023-12-30T11:58:52.878Z,95278.31
2023-12-30T12:01:21.370Z,95282.56
2023-12-30T12:03:48.553Z,95269.53
2023-12-30T12:06:16.458Z,95276.00
2023-12-30T12:08:44.547Z,95268.59
2023-12-30T12:11:12.191Z,95273.97
2023-12-30T12:13:41.135Z,95269.66
2023-12-30T12:16:18.385Z,95251.69
2023-12-30T12:18:46.407Z,95257.84
2023-12-30T12:21:15.174Z,95260.84
2023-12-30T12:23:43.180Z,95263.88
2023-12-30T12:26:10.734Z,95260.03
2023-12-30T12:28:38.081Z,95257.31
2023-12-30T12:31:08.485Z,95248.78
2023-12-30T12:33:36.525Z,95254.53
2023-12-30T12:36:06.061Z,95249.56
2023-12-30T12:38:33.441Z,95246.97
2023-12-30T12:41:00.512Z,95245.66
2023-12-30T12:43:27.613Z,95244.47
2023-12-30T12:45:54.887Z,95251.44
2023-12-30T12:48:22.093Z,95245.63
2023-12-30T12:50:49.734Z,95242.81
2023-12-30T12:53:18.110Z,95245.75
2023-12-30T12:55:45.388Z,95242.16
2023-12-30T12:58:12.679Z,95250.78
2023-12-30T13:00:39.869Z,95247.97
2023-12-30T13:03:07.892Z,95255.50
2023-12-30T13:05:36.205Z,95251.47
2023-12-30T13:08:03.709Z,95251.94
2023-12-30T13:10:34.093Z,95251.13
2023-12-30T13:13:01.984Z,95245.72
2023-12-30T13:15:29.532Z,95243.06
2023-12-30T13:17:56.931Z,95251.47
2023-12-30T13:20:25.396Z,95253.09
2023-12-30T13:22:57.900Z,95256.50
2023-12-30T13:25:31.705Z,95253.34
2023-12-30T13:27:59.992Z,95244.13
2023-12-30T13:30:27.559Z,95255.19
2023-12-30T13:32:59.164Z,95260.31
2023-12-30T13:35:30.605Z,95253.91
2023-12-30T13:37:57.613Z,95260.16
2023-12-30T13:40:26.314Z,95253.19
2023-12-30T13:42:55.584Z,95260.94
2023-12-30T13:45:23.536Z,95262.88
2023-12-30T13:48:13.394Z,95262.81
2023-12-30T13:51:01.247Z,95255.53
2023-12-30T13:53:29.660Z,95256.19
2023-12-30T13:56:00.616Z,95252.84
2023-12-30T13:58:29.966Z,95252.38
2023-12-30T14:00:57.786Z,95260.72
2023-12-30T14:03:26.673Z,95255.84
2023-12-30T14:05:54.333Z,95253.09
2023-12-30T14:08:33.871Z,95251.56
2023-12-30T14:11:07.954Z,95254.47
2023-12-30T14:13:35.162Z,95253.50
2023-12-30T14:16:02.430Z,95251.78
2023-12-30T14:18:29.834Z,95258.91
2023-12-30T14:20:56.936Z,95260.69
2023-12-30T14:23:24.034Z,95255.59
2023-12-30T14:25:51.349Z,95262.69
2023-12-30T14:28:18.590Z,95260.53
2023-12-30T14:30:46.355Z,95262.94
2023-12-30T14:33:13.661Z,95256.22
2023-12-30T14:35:40.898Z,95256.84
2023-12-30T14:38:08.166Z,95259.28
2023-12-30T14:40:35.753Z,95249.13
2023-12-30T14:43:03.459Z,95255.19
2023-12-30T14:45:30.865Z,95257.78
2023-12-30T14:47:58.732Z,95258.59
2023-12-30T14:50:25.893Z,95263.78
2023-12-30T14:52:53.459Z,95266.97
2023-12-30T14:55:20.606Z,95270.97
2023-12-30T14:57:49.886Z,95254.94
2023-12-30T15:00:17.902Z,95265.34
2023-12-30T15:02:45.817Z,95268.50
2023-12-30T15:05:15.700Z,95263.06
2023-12-30T15:07:45.188Z,95273.81
2023-12-30T15:10:15.052Z,95270.94
2023-12-30T15:12:44.082Z,95275.00
2023-12-30T15:15:13.096Z,95261.19
2023-12-30T15:17:40.592Z,95270.13
2023-12-30T15:20:09.214Z,95261.44
2023-12-30T15:22:38.730Z,95270.34
2023-12-30T15:25:09.160Z,95272.78
2023-12-30T15:27:36.359Z,95274.28
2023-12-30T15:30:03.782Z,95269.53
2023-12-30T15:32:31.450Z,95264.50
2023-12-30T15:34:59.532Z,95277.59
2023-12-30T15:37:32.499Z,95281.28
2023-12-30T15:39:59.725Z,95277.34
2023-12-30T15:42:27.161Z,95269.22
2023-12-30T15:44:54.198Z,95278.44
2023-12-30T15:47:22.128Z,95275.22
2023-12-30T15:49:49.304Z,95276.28
2023-12-30T15:52:16.657Z,95276.47
2023-12-30T15:54:44.364Z,95272.84
2023-12-30T15:57:11.973Z,95271.59
2023-12-30T15:59:39.179Z,95253.72
2023-12-30T16:02:06.906Z,95270.75
2023-12-30T16:04:34.455Z,95280.22
2023-12-30T16:07:02.346Z,95281.53
2023-12-30T16:09:29.677Z,95279.59
2023-12-30T16:11:58.387Z,95289.97
2023-12-30T16:14:25.631Z,95287.50
2023-12-30T16:16:52.888Z,95291.69
2023-12-30T16:19:21.252Z,95294.34
2023-12-30T16:21:50.982Z,95294.94
2023-12-30T16:24:18.730Z,95299.94
2023-12-30T16:26:46.148Z,95311.13
2023-12-30T16:29:13.433Z,95302.03
2023-12-30T16:31:40.737Z,95307.59
2023-12-30T16:34:08.228Z,95305.94
2023-12-30T16:36:36.469Z,95307.09
2023-12-30T16:39:03.824Z,95308.72
2023-12-30T16:41:32.290Z,95302.97
2023-12-30T16:43:59.437Z,95302.00
2023-12-30T16:46:26.788Z,95312.78
2023-12-30T16:48:54.831Z,95303.06
2023-12-30T16:51:22.345Z,95279.97
2023-12-30T16:53:49.788Z,95318.09
2023-12-30T16:56:17.220Z,95311.31
2023-12-30T16:58:44.547Z,95313.91
2023-12-30T17:01:11.752Z,95310.06
2023-12-30T17:03:38.932Z,95293.16
2023-12-30T17:06:06.471Z,95321.94
2023-12-30T17:08:33.988Z,95308.25
2023-12-30T17:11:01.085Z,95317.91
2023-12-30T17:13:35.138Z,95320.88
2023-12-30T17:16:07.782Z,95326.69
2023-12-30T17:18:35.160Z,95309.94
2023-12-30T17:21:02.929Z,95306.34
2023-12-30T17:23:30.059Z,95315.78
2023-12-30T17:25:57.282Z,95309.44
2023-12-30T17:28:24.510Z,95313.06
2023-12-30T17:30:51.711Z,95324.91
2023-12-30T17:33:18.993Z,95295.91
2023-12-30T17:35:46.158Z,95324.84
2023-12-30T17:38:13.324Z,95324.84
2023-12-30T17:40:40.621Z,95315.13
2023-12-30T17:43:08.581Z,95325.38
2023-12-30T17:45:35.708Z,95313.50
2023-12-30T17:48:03.112Z,95320.22
2023-12-30T17:50:30.864Z,95331.09
2023-12-30T17:52:58.196Z,95324.84
2023-12-30T17:55:26.521Z,95316.91
2023-12-30T17:57:53.672Z,95326.34
2023-12-30T18:00:21.351Z,95320.94
2023-12-30T18:02:49.296Z,95323.06
2023-12-30T18:05:16.701Z,95327.44
2023-12-30T18:07:44.136Z,95329.13
2023-12-30T18:10:11.557Z,95334.06
2023-12-30T18:12:38.801Z,95322.41
2023-12-30T18:15:06.614Z,95318.84
2023-12-30T18:17:33.871Z,95314.34
2023-12-30T18:20:01.452Z,95322.31
2023-12-30T18:22:30.148Z,95329.69
2023-12-30T18:24:58.269Z,95321.38
2023-12-30T18:27:25.455Z,95326.09
2023-12-30T18:29:52.578Z,95325.28
2023-12-30T18:32:19.626Z,95326.66
2023-12-30T18:34:46.726Z,95324.97
2023-12-30T18:37:15.557Z,95338.81
2023-12-30T18:39:42.906Z,95342.47
2023-12-30T18:42:10.049Z,95331.28
2023-12-30T18:44:37.401Z,95335.66
2023-12-30T18:47:04.791Z,95336.19
2023-12-30T18:49:31.967Z,95338.22
2023-12-30T18:51:59.510Z,95317.50
2023-12-30T18:54:26.783Z,95338.09
2023-12-30T18:56:53.934Z,95325.72
2023-12-30T18:59:21.114Z,95325.06
2023-12-30T19:01:48.253Z,95331.78
2023-12-30T19:04:15.632Z,95331.03
2023-12-30T19:06:42.961Z,95336.06
2023-12-30T19:09:10.474Z,95340.59
2023-12-30T19:11:38.576Z,95334.22
2023-12-30T19:14:05.685Z,95342.94
2023-12-30T19:16:32.901Z,95321.03
2023-12-30T19:19:00.254Z,95335.84
2023-12-30T19:21:27.389Z,95342.63
2023-12-30T19:23:54.645Z,95343.75
2023-12-30T19:26:21.893Z,95334.19
2023-12-30T19:28:49.296Z,95337.81
2023-12-30T19:31:16.726Z,95352.50
2023-12-30T19:33:44.274Z,95349.44
2023-12-30T19:36:11.885Z,95330.50
2023-12-30T19:38:39.430Z,95334.78
2023-12-30T19:41:06.563Z,95343.72
2023-12-30T19:43:35.374Z,95354.34
2023-12-30T19:46:08.760Z,95357.19
2023-12-30T19:48:36.527Z,95355.97
2023-12-30T19:51:05.585Z,95355.78
2023-12-30T19:53:34.007Z,95353.94
2023-12-30T19:56:02.776Z,95349.69
2023-12-30T19:58:32.072Z,95357.84
2023-12-30T20:00:59.701Z,95357.22
2023-12-30T20:03:27.063Z,95373.09
2023-12-30T20:05:54.484Z,95368.00
2023-12-30T20:08:22.551Z,95377.97
2023-12-30T20:10:50.111Z,95378.22
2023-12-30T20:13:17.320Z,95377.78
2023-12-30T20:15:44.542Z,95375.16
2023-12-30T20:18:11.842Z,95387.75
2023-12-30T20:20:39.110Z,95383.50
2023-12-30T20:23:06.841Z,95378.41
2023-12-30T20:25:34.232Z,95377.38
2023-12-30T20:28:01.637Z,95375.34
2023-12-30T20:30:28.957Z,95374.94
2023-12-30T20:32:56.373Z,95370.47
2023-12-30T20:35:23.492Z,95380.25
2023-12-30T20:37:50.659Z,95371.69
2023-12-30T20:40:18.886Z,95384.28
2023-12-30T20:42:46.471Z,95387.38
2023-12-30T20:45:18.046Z,95382.47
2023-12-30T20:47:45.180Z,95377.38
2023-12-30T20:50:13.041Z,95374.31
2023-12-30T20:52:40.765Z,95383.06
2023-12-30T20:55:08.054Z,95380.00
2023-12-30T20:57:35.264Z,95387.72
2023-12-30T21:00:02.467Z,95380.38
2023-12-30T21:02:31.250Z,95392.00
2023-12-30T21:04:58.753Z,95394.44
2023-12-30T21:07:25.864Z,95387.50
2023-12-30T21:09:53.055Z,95391.19
2023-12-30T21:12:20.162Z,95388.53
2023-12-30T21:14:47.321Z,95394.00
2023-12-30T21:17:15.028Z,95388.72
2023-12-30T21:19:42.231Z,95392.22
2023-12-30T21:22:09.657Z,95395.44
2023-12-30T21:24:39.902Z,95383.63
2023-12-30T21:27:07.475Z,95384.44
2023-12-30T21:29:38.237Z,95391.16
2023-12-30T21:32:07.519Z,95382.63
2023-12-30T21:34:34.637Z,95391.16
2023-12-30T21:37:01.703Z,95384.88
2023-12-30T21:39:28.751Z,95392.19
2023-12-30T21:41:55.909Z,95397.91
2023-12-30T21:44:22.958Z,95384.28
2023-12-30T21:46:50.167Z,95388.75
2023-12-30T21:49:17.475Z,95396.69
2023-12-30T21:51:45.576Z,95394.25
2023-12-30T21:54:14.411Z,95399.53
2023-12-30T21:56:42.451Z,95398.94
2023-12-30T21:59:09.972Z,95402.94
2023-12-30T22:01:37.460Z,95398.06
2023-12-30T22:04:06.052Z,95392.16
2023-12-30T22:06:34.153Z,95398.25
2023-12-30T22:09:01.374Z,95402.69
2023-12-30T22:11:28.913Z,95401.25
2023-12-30T22:13:56.852Z,95394.38
2023-12-30T22:16:24.264Z,95392.75
2023-12-30T22:18:51.536Z,95396.78
2023-12-30T22:21:19.254Z,95390.06
2023-12-30T22:23:48.028Z,95387.59
2023-12-30T22:26:19.122Z,95387.56
2023-12-30T22:28:46.498Z,95384.53
2023-12-30T22:31:14.113Z,95381.69
2023-12-30T22:33:41.253Z,95387.41
2023-12-30T22:36:08.571Z,95380.50
2023-12-30T22:38:39.200Z,95377.81
2023-12-30T22:41:06.489Z,95370.28
2023-12-30T22:43:34.598Z,95374.16
2023-12-30T22:46:02.812Z,95370.72
2023-12-30T22:48:29.972Z,95371.94
2023-12-30T22:50:57.207Z,95357.09
2023-12-30T22:53:24.259Z,95367.22
2023-12-30T22:55:51.489Z,95375.16
2023-12-30T22:58:18.594Z,95356.66
2023-12-30T23:00:46.775Z,95370.50
2023-12-30T23:03:15.275Z,95360.50
2023-12-30T23:05:42.409Z,95368.47
2023-12-30T23:08:09.635Z,95365.84
2023-12-30T23:10:36.884Z,95359.97
2023-12-30T23:13:05.404Z,95362.09
2023-12-30T23:15:32.780Z,95355.59
2023-12-30T23:18:00.392Z,95347.25
2023-12-30T23:20:27.740Z,95364.59
2023-12-30T23:22:54.881Z,95351.19
2023-12-30T23:25:21.982Z,95350.56
2023-12-30T23:27:49.160Z,95359.31
2023-12-30T23:30:16.631Z,95354.22
2023-12-30T23:32:43.784Z,95355.66
2023-12-30T23:35:11.079Z,95323.28
2023-12-30T23:37:38.246Z,95354.88
2023-12-30T23:40:08.132Z,95353.63
2023-12-30T23:42:35.161Z,95329.03
2023-12-30T23:45:03.107Z,95347.19
2023-12-30T23:47:30.535Z,95337.00
2023-12-30T23:49:57.985Z,95337.41
2023-12-30T23:52:25.378Z,95343.09
2023-12-30T23:54:53.734Z,95340.72
2023-12-30T23:57:21.022Z,95336.25
2023-12-30T23:59:48.072Z,95324.81
